createdAt,value
2019-05-13T00:00:04.400Z,54015.08
2019-05-13T00:05:23.429Z,54061.51
2019-05-13T00:10:43.623Z,53986.82
2019-05-13T00:16:03.704Z,53985.82
2019-05-13T00:21:23.217Z,53983.80
2019-05-13T00:26:43.823Z,54018.11
2019-05-13T00:32:04.446Z,53989.85
2019-05-13T00:37:24.481Z,54020.13
2019-05-13T00:42:44.180Z,54003.98
2019-05-13T00:48:04.503Z,54000.95
2019-05-13T00:53:23.794Z,53938.38
2019-05-13T00:58:43.708Z,53990.86
2019-05-13T01:04:03.981Z,54020.13
2019-05-13T01:09:23.753Z,53996.92
2019-05-13T01:14:43.267Z,53967.65
2019-05-13T01:20:04.038Z,54010.04
2019-05-13T01:25:24.253Z,53973.70
2019-05-13T01:30:43.856Z,53983.80
2019-05-13T01:36:05.233Z,53991.87
2019-05-13T01:41:24.070Z,53994.90
2019-05-13T01:46:43.674Z,53988.84
2019-05-13T01:52:03.893Z,53990.86
2019-05-13T01:57:23.831Z,53993.89
2019-05-13T02:02:44.444Z,53988.84
2019-05-13T02:08:04.434Z,53994.90
2019-05-13T02:13:24.846Z,53975.72
2019-05-13T02:18:44.406Z,53973.70
2019-05-13T02:24:04.320Z,53991.87
2019-05-13T02:29:24.508Z,54008.02
2019-05-13T02:34:44.005Z,53985.82
2019-05-13T02:40:03.930Z,54011.05
2019-05-13T02:45:22.903Z,54011.05
2019-05-13T02:50:44.122Z,53977.74
2019-05-13T02:56:02.943Z,53969.67
2019-05-13T03:01:22.456Z,54018.11
2019-05-13T03:06:43.491Z,54003.98
2019-05-13T03:12:04.158Z,53957.55
2019-05-13T03:17:32.931Z,54002.97
2019-05-13T03:22:52.583Z,53930.30
2019-05-13T03:28:13.463Z,53950.49
2019-05-13T03:33:36.662Z,53950.49
2019-05-13T03:39:05.092Z,53980.77
2019-05-13T03:44:13.775Z,53995.91
2019-05-13T03:49:35.702Z,53959.57
2019-05-13T03:54:55.518Z,53967.65
2019-05-13T04:00:14.704Z,53984.80
2019-05-13T04:05:33.731Z,53974.71
2019-05-13T04:10:52.718Z,53997.93
2019-05-13T04:16:12.712Z,53974.71
2019-05-13T04:21:33.794Z,53995.91
2019-05-13T04:26:53.371Z,54016.09
2019-05-13T04:32:13.112Z,54020.13
2019-05-13T04:37:33.070Z,54050.41
2019-05-13T04:42:53.337Z,54030.22
2019-05-13T04:48:12.878Z,54080.68
2019-05-13T04:53:33.394Z,54086.74
2019-05-13T04:58:53.054Z,54076.65
2019-05-13T05:04:24.343Z,54065.55
2019-05-13T05:10:13.278Z,54069.58
2019-05-13T05:15:44.745Z,54102.89
2019-05-13T05:21:21.860Z,54057.47
2019-05-13T05:27:03.022Z,54034.26
2019-05-13T05:32:24.984Z,54046.37
2019-05-13T05:37:49.153Z,54067.57
2019-05-13T05:43:11.490Z,54068.57
2019-05-13T05:48:32.459Z,54032.24
2019-05-13T05:53:54.047Z,54026.19
2019-05-13T05:59:12.856Z,54025.18
2019-05-13T06:04:32.656Z,54002.97
2019-05-13T06:09:54.045Z,54050.41
2019-05-13T06:15:12.690Z,54006.00
2019-05-13T06:20:31.761Z,54071.60
2019-05-13T06:25:52.730Z,54055.45
2019-05-13T06:31:12.414Z,54023.16
2019-05-13T06:36:31.773Z,54040.31
2019-05-13T06:41:51.764Z,54033.25
2019-05-13T06:47:11.364Z,54038.30
2019-05-13T06:52:31.997Z,54039.30
2019-05-13T06:57:51.850Z,54051.42
2019-05-13T07:03:12.724Z,54044.35
2019-05-13T07:08:32.034Z,54049.40
2019-05-13T07:13:51.644Z,54034.26
2019-05-13T07:19:11.704Z,54032.24
2019-05-13T07:24:32.240Z,54069.58
2019-05-13T07:29:53.590Z,54042.34
2019-05-13T07:35:13.890Z,54065.55
2019-05-13T07:40:32.298Z,54007.01
2019-05-13T07:45:51.432Z,54019.12
2019-05-13T07:51:11.983Z,53995.91
2019-05-13T07:56:32.472Z,54038.30
2019-05-13T08:01:52.217Z,54038.30
2019-05-13T08:07:11.989Z,54089.77
2019-05-13T08:12:31.936Z,54017.10
2019-05-13T08:17:52.450Z,54062.52
2019-05-13T08:23:12.204Z,54071.60
2019-05-13T08:28:32.358Z,54039.30
2019-05-13T08:33:52.004Z,54017.10
2019-05-13T08:39:12.688Z,54043.34
2019-05-13T08:44:32.229Z,54040.31
2019-05-13T08:49:52.017Z,54012.05
2019-05-13T08:55:15.576Z,54053.43
2019-05-13T09:00:49.431Z,54053.43
2019-05-13T09:06:08.100Z,54021.14
2019-05-13T09:11:26.758Z,54030.22
2019-05-13T09:16:45.449Z,54048.39
2019-05-13T09:22:04.100Z,54064.54
2019-05-13T09:27:22.759Z,54036.28
2019-05-13T09:32:42.587Z,54063.53
2019-05-13T09:38:03.251Z,54012.05
2019-05-13T09:43:22.276Z,54054.45
2019-05-13T09:48:42.505Z,54024.17
2019-05-13T09:54:01.496Z,54058.48
2019-05-13T09:59:22.197Z,54043.34
2019-05-13T10:04:43.368Z,54017.10
2019-05-13T10:10:02.015Z,54060.50
2019-05-13T10:15:22.166Z,54019.12
2019-05-13T10:20:46.572Z,54019.12
2019-05-13T10:26:08.270Z,54023.16
2019-05-13T10:31:27.010Z,54049.40
2019-05-13T10:36:47.189Z,54036.28
2019-05-13T10:42:05.839Z,54048.39
2019-05-13T10:47:24.765Z,54054.45
2019-05-13T10:52:43.500Z,54079.68
2019-05-13T10:58:02.574Z,54064.54
2019-05-13T11:03:23.039Z,54052.43
2019-05-13T11:08:42.263Z,54032.24
2019-05-13T11:14:10.638Z,54018.11
2019-05-13T11:19:22.987Z,54019.12
2019-05-13T11:24:43.201Z,54034.26
2019-05-13T11:30:05.480Z,54052.43
2019-05-13T11:35:23.010Z,54057.47
2019-05-13T11:40:42.216Z,54026.19
2019-05-13T11:46:02.273Z,54061.51
2019-05-13T11:51:24.060Z,54026.19
2019-05-13T11:56:48.910Z,54040.31
2019-05-13T12:02:04.566Z,54075.64
2019-05-13T12:07:23.249Z,54040.31
2019-05-13T12:12:43.898Z,54031.23
2019-05-13T12:18:03.023Z,54047.38
2019-05-13T12:23:21.704Z,54034.26
2019-05-13T12:28:42.126Z,54074.63
2019-05-13T12:34:03.507Z,54045.36
2019-05-13T12:39:23.754Z,54065.55
2019-05-13T12:45:00.323Z,54013.06
2019-05-13T12:50:03.490Z,54065.55
2019-05-13T12:55:23.119Z,54048.39
2019-05-13T13:00:43.399Z,54054.45
2019-05-13T13:06:25.672Z,54051.42
2019-05-13T13:11:24.185Z,54069.58
2019-05-13T13:16:43.296Z,54024.17
2019-05-13T13:22:06.853Z,54048.39
2019-05-13T13:27:46.880Z,54021.14
2019-05-13T13:32:45.223Z,54056.46
2019-05-13T13:38:04.340Z,54042.34
2019-05-13T13:43:24.693Z,54050.41
2019-05-13T13:48:44.361Z,54040.31
2019-05-13T13:54:03.400Z,54009.03
2019-05-13T13:59:24.520Z,54017.10
2019-05-13T14:04:44.066Z,54031.23
2019-05-13T14:10:06.962Z,54036.28
2019-05-13T14:15:23.614Z,54028.20
2019-05-13T14:20:42.976Z,54062.52
2019-05-13T14:26:01.798Z,54054.45
2019-05-13T14:31:21.397Z,54061.51
2019-05-13T14:36:40.188Z,54024.17
2019-05-13T14:41:59.032Z,54042.34
2019-05-13T14:47:17.686Z,54023.16
2019-05-13T14:52:36.350Z,54024.17
2019-05-13T14:57:55.001Z,54000.95
2019-05-13T15:03:13.828Z,54029.21
2019-05-13T15:08:33.075Z,54070.59
2019-05-13T15:13:52.268Z,54049.40
2019-05-13T15:19:12.096Z,54055.45
2019-05-13T15:24:32.331Z,53999.95
2019-05-13T15:29:51.782Z,54035.27
2019-05-13T15:35:13.243Z,54053.43
2019-05-13T15:40:31.319Z,54054.45
2019-05-13T15:45:51.280Z,54052.43
2019-05-13T15:51:11.282Z,54027.20
2019-05-13T15:56:31.468Z,54037.29
2019-05-13T16:01:52.528Z,54053.43
2019-05-13T16:07:12.274Z,54031.23
2019-05-13T16:12:32.112Z,54027.20
2019-05-13T16:17:52.108Z,54058.48
2019-05-13T16:23:12.609Z,54034.26
2019-05-13T16:28:32.501Z,54037.29
2019-05-13T16:33:52.265Z,54000.95
2019-05-13T16:39:12.307Z,54050.41
2019-05-13T16:44:31.896Z,54055.45
2019-05-13T16:49:50.837Z,53996.92
2019-05-13T16:55:12.591Z,54014.07
2019-05-13T17:00:31.731Z,54038.30
2019-05-13T17:05:51.372Z,53988.84
2019-05-13T17:11:11.748Z,54037.29
2019-05-13T17:16:31.722Z,54029.21
2019-05-13T17:21:52.035Z,53988.84
2019-05-13T17:27:12.184Z,54013.06
2019-05-13T17:32:30.880Z,54065.55
2019-05-13T17:37:51.215Z,54031.23
2019-05-13T17:43:11.964Z,53996.92
2019-05-13T17:48:33.034Z,54004.99
2019-05-13T17:53:52.561Z,54019.12
2019-05-13T17:59:11.715Z,54041.32
2019-05-13T18:04:31.491Z,54015.08
2019-05-13T18:09:52.038Z,54023.16
2019-05-13T18:15:11.497Z,54031.23
2019-05-13T18:20:32.176Z,54022.15
2019-05-13T18:25:51.461Z,53998.93
2019-05-13T18:31:12.373Z,54012.05
2019-05-13T18:36:31.775Z,54013.06
2019-05-13T18:41:51.939Z,54027.20
2019-05-13T18:47:12.076Z,54034.26
2019-05-13T18:52:32.574Z,54014.07
2019-05-13T18:57:51.933Z,53997.93
2019-05-13T19:03:16.226Z,54028.20
2019-05-13T19:08:34.853Z,54043.34
2019-05-13T19:13:53.870Z,54017.10
2019-05-13T19:19:19.713Z,53965.63
2019-05-13T19:24:36.258Z,54019.12
2019-05-13T19:29:54.906Z,53996.92
2019-05-13T19:35:13.650Z,54040.31
2019-05-13T19:40:32.513Z,54020.13
2019-05-13T19:45:51.883Z,54016.09
2019-05-13T19:51:10.652Z,54011.05
2019-05-13T19:56:31.780Z,53989.85
2019-05-13T20:01:51.684Z,53984.80
2019-05-13T20:07:11.871Z,53986.82
2019-05-13T20:12:31.265Z,53985.82
2019-05-13T20:17:52.034Z,54011.05
2019-05-13T20:23:12.056Z,53982.79
2019-05-13T20:28:31.709Z,53986.82
2019-05-13T20:33:51.594Z,53990.86
2019-05-13T20:39:11.558Z,53966.64
2019-05-13T20:44:31.303Z,53988.84
2019-05-13T20:49:59.055Z,53965.63
2019-05-13T20:55:10.876Z,53961.59
2019-05-13T21:00:31.428Z,53964.62
2019-05-13T21:05:51.898Z,53990.86
2019-05-13T21:11:11.521Z,54003.98
2019-05-13T21:16:30.153Z,53989.85
2019-05-13T21:21:50.984Z,53986.82
2019-05-13T21:27:12.174Z,53998.93
2019-05-13T21:32:29.899Z,53980.77
2019-05-13T21:37:48.520Z,53984.80
2019-05-13T21:43:07.207Z,53998.93
2019-05-13T21:48:26.119Z,53988.84
2019-05-13T21:53:44.813Z,53993.89
2019-05-13T21:59:03.471Z,53917.18
2019-05-13T22:04:25.424Z,53949.48
2019-05-13T22:09:44.162Z,53974.71
2019-05-13T22:15:02.783Z,53966.64
2019-05-13T22:20:21.516Z,53982.79
2019-05-13T22:25:43.387Z,53988.84
2019-05-13T22:31:01.378Z,53943.43
2019-05-13T22:36:21.279Z,53986.82
2019-05-13T22:41:42.104Z,53972.70
2019-05-13T22:47:02.454Z,53966.64
2019-05-13T22:52:21.859Z,53973.70
2019-05-13T22:57:41.956Z,53976.73
2019-05-13T23:03:01.609Z,53951.50
2019-05-13T23:08:21.695Z,53954.53
2019-05-13T23:13:42.252Z,53977.74
2019-05-13T23:19:00.953Z,53994.90
2019-05-13T23:24:21.903Z,53933.33
2019-05-13T23:29:41.201Z,53973.70
2019-05-13T23:35:02.031Z,53981.78
2019-05-13T23:40:20.517Z,53940.40
2019-05-13T23:45:39.096Z,53969.67
2019-05-13T23:50:57.662Z,53973.70
2019-05-13T23:56:16.337Z,53970.68
